sensor_id;sensor_type;location;lat;lon;timestamp;P1;durP1;ratioP1;P2;durP2;ratioP2
9005;SDS011;62284;50.702;7.140;2022-10-26T00:01:03;2.70;;;1.95;;
9005;SDS011;62284;50.702;7.140;2022-10-26T00:03:31;2.88;;;1.83;;
9005;SDS011;62284;50.702;7.140;2022-10-26T00:06:05;3.85;;;2.10;;
9005;SDS011;62284;50.702;7.140;2022-10-26T00:08:34;1.85;;;1.70;;
9005;SDS011;62284;50.702;7.140;2022-10-26T00:11:02;2.75;;;1.92;;
9005;SDS011;62284;50.702;7.140;2022-10-26T00:13:29;2.30;;;1.70;;
9005;SDS011;62284;50.702;7.140;2022-10-26T00:15:56;4.13;;;2.10;;
9005;SDS011;62284;50.702;7.140;2022-10-26T00:18:24;3.30;;;2.05;;
9005;SDS011;62284;50.702;7.140;2022-10-26T00:20:52;2.63;;;1.92;;
9005;SDS011;62284;50.702;7.140;2022-10-26T00:23:18;1.95;;;1.73;;
9005;SDS011;62284;50.702;7.140;2022-10-26T00:25:52;3.25;;;1.95;;
9005;SDS011;62284;50.702;7.140;2022-10-26T00:28:19;3.80;;;2.40;;
9005;SDS011;62284;50.702;7.140;2022-10-26T00:30:46;3.22;;;2.20;;
9005;SDS011;62284;50.702;7.140;2022-10-26T00:33:13;3.13;;;1.60;;
9005;SDS011;62284;50.702;7.140;2022-10-26T00:35:42;3.58;;;1.83;;
9005;SDS011;62284;50.702;7.140;2022-10-26T00:38:09;3.03;;;2.00;;
9005;SDS011;62284;50.702;7.140;2022-10-26T00:40:35;5.25;;;1.85;;
9005;SDS011;62284;50.702;7.140;2022-10-26T00:43:02;4.47;;;1.77;;
9005;SDS011;62284;50.702;7.140;2022-10-26T00:45:31;1.70;;;1.42;;
9005;SDS011;62284;50.702;7.140;2022-10-26T00:47:58;4.50;;;2.00;;
9005;SDS011;62284;50.702;7.140;2022-10-26T00:50:31;2.55;;;1.80;;
9005;SDS011;62284;50.702;7.140;2022-10-26T00:53:01;3.33;;;1.92;;
9005;SDS011;62284;50.702;7.140;2022-10-26T00:55:31;3.40;;;1.70;;
9005;SDS011;62284;50.702;7.140;2022-10-26T00:58:00;2.67;;;2.00;;
9005;SDS011;62284;50.702;7.140;2022-10-26T01:00:29;3.50;;;1.67;;
9005;SDS011;62284;50.702;7.140;2022-10-26T01:02:57;5.22;;;2.30;;
9005;SDS011;62284;50.702;7.140;2022-10-26T01:05:27;2.70;;;1.88;;
9005;SDS011;62284;50.702;7.140;2022-10-26T01:07:55;3.13;;;2.10;;
9005;SDS011;62284;50.702;7.140;2022-10-26T01:10:25;3.15;;;1.70;;
9005;SDS011;62284;50.702;7.140;2022-10-26T01:12:54;2.35;;;1.80;;
9005;SDS011;62284;50.702;7.140;2022-10-26T01:15:25;2.88;;;2.20;;
9005;SDS011;62284;50.702;7.140;2022-10-26T01:18:03;3.85;;;2.15;;
9005;SDS011;62284;50.702;7.140;2022-10-26T01:20:38;3.90;;;2.10;;
9005;SDS011;62284;50.702;7.140;2022-10-26T01:23:20;1.90;;;1.70;;
9005;SDS011;62284;50.702;7.140;2022-10-26T01:26:07;3.38;;;1.83;;
9005;SDS011;62284;50.702;7.140;2022-10-26T01:28:55;3.25;;;2.20;;
9005;SDS011;62284;50.702;7.140;2022-10-26T01:31:46;2.60;;;2.00;;
9005;SDS011;62284;50.702;7.140;2022-10-26T01:34:18;3.90;;;1.83;;
9005;SDS011;62284;50.702;7.140;2022-10-26T01:36:51;4.68;;;2.35;;
9005;SDS011;62284;50.702;7.140;2022-10-26T01:39:20;2.00;;;1.70;;
9005;SDS011;62284;50.702;7.140;2022-10-26T01:41:54;1.55;;;1.40;;
9005;SDS011;62284;50.702;7.140;2022-10-26T01:44:24;4.03;;;2.20;;
9005;SDS011;62284;50.702;7.140;2022-10-26T01:46:57;4.35;;;2.05;;
9005;SDS011;62284;50.702;7.140;2022-10-26T01:49:26;3.53;;;2.03;;
9005;SDS011;62284;50.702;7.140;2022-10-26T01:51:55;2.47;;;1.52;;
9005;SDS011;62284;50.702;7.140;2022-10-26T01:54:22;3.85;;;1.98;;
9005;SDS011;62284;50.702;7.140;2022-10-26T01:56:49;4.28;;;1.73;;
9005;SDS011;62284;50.702;7.140;2022-10-26T01:59:25;2.33;;;1.60;;
9005;SDS011;62284;50.702;7.140;2022-10-26T02:02:24;3.17;;;1.83;;
9005;SDS011;62284;50.702;7.140;2022-10-26T02:05:15;2.80;;;1.80;;
9005;SDS011;62284;50.702;7.140;2022-10-26T02:08:04;1.95;;;1.58;;
9005;SDS011;62284;50.702;7.140;2022-10-26T02:10:50;2.45;;;1.75;;
9005;SDS011;62284;50.702;7.140;2022-10-26T02:13:28;3.10;;;1.73;;
9005;SDS011;62284;50.702;7.140;2022-10-26T02:16:04;3.17;;;1.98;;
9005;SDS011;62284;50.702;7.140;2022-10-26T02:18:42;2.30;;;1.55;;
9005;SDS011;62284;50.702;7.140;2022-10-26T02:21:17;4.60;;;2.10;;
9005;SDS011;62284;50.702;7.140;2022-10-26T02:23:47;3.70;;;1.50;;
9005;SDS011;62284;50.702;7.140;2022-10-26T02:26:17;5.88;;;1.65;;
9005;SDS011;62284;50.702;7.140;2022-10-26T02:28:48;2.20;;;1.55;;
9005;SDS011;62284;50.702;7.140;2022-10-26T02:31:19;3.38;;;2.03;;
9005;SDS011;62284;50.702;7.140;2022-10-26T02:33:48;2.95;;;1.80;;
9005;SDS011;62284;50.702;7.140;2022-10-26T02:36:19;3.53;;;2.08;;
9005;SDS011;62284;50.702;7.140;2022-10-26T02:38:50;2.45;;;1.90;;
9005;SDS011;62284;50.702;7.140;2022-10-26T02:41:19;3.45;;;2.25;;
9005;SDS011;62284;50.702;7.140;2022-10-26T02:43:49;2.75;;;2.00;;
9005;SDS011;62284;50.702;7.140;2022-10-26T02:46:19;2.65;;;1.83;;
9005;SDS011;62284;50.702;7.140;2022-10-26T02:48:49;2.70;;;2.38;;
9005;SDS011;62284;50.702;7.140;2022-10-26T02:51:18;3.50;;;2.13;;
9005;SDS011;62284;50.702;7.140;2022-10-26T02:53:50;2.83;;;1.50;;
9005;SDS011;62284;50.702;7.140;2022-10-26T02:56:23;3.08;;;1.65;;
9005;SDS011;62284;50.702;7.140;2022-10-26T02:58:55;2.63;;;1.40;;
9005;SDS011;62284;50.702;7.140;2022-10-26T03:01:25;7.05;;;2.30;;
9005;SDS011;62284;50.702;7.140;2022-10-26T03:03:57;4.03;;;2.08;;
9005;SDS011;62284;50.702;7.140;2022-10-26T03:06:25;2.25;;;1.90;;
9005;SDS011;62284;50.702;7.140;2022-10-26T03:08:52;3.28;;;2.38;;
9005;SDS011;62284;50.702;7.140;2022-10-26T03:11:19;4.40;;;2.10;;
9005;SDS011;62284;50.702;7.140;2022-10-26T03:13:46;3.38;;;1.98;;
9005;SDS011;62284;50.702;7.140;2022-10-26T03:16:13;2.63;;;1.75;;
9005;SDS011;62284;50.702;7.140;2022-10-26T03:18:39;3.72;;;2.45;;
9005;SDS011;62284;50.702;7.140;2022-10-26T03:21:08;2.00;;;1.80;;
9005;SDS011;62284;50.702;7.140;2022-10-26T03:23:34;2.22;;;2.03;;
9005;SDS011;62284;50.702;7.140;2022-10-26T03:26:01;3.92;;;2.28;;
9005;SDS011;62284;50.702;7.140;2022-10-26T03:28:28;4.20;;;2.42;;
9005;SDS011;62284;50.702;7.140;2022-10-26T03:30:55;3.10;;;2.10;;
9005;SDS011;62284;50.702;7.140;2022-10-26T03:33:22;4.00;;;2.47;;
9005;SDS011;62284;50.702;7.140;2022-10-26T03:35:52;2.78;;;1.90;;
9005;SDS011;62284;50.702;7.140;2022-10-26T03:38:22;2.75;;;2.28;;
9005;SDS011;62284;50.702;7.140;2022-10-26T03:40:49;3.22;;;2.22;;
9005;SDS011;62284;50.702;7.140;2022-10-26T03:43:16;4.18;;;2.15;;
9005;SDS011;62284;50.702;7.140;2022-10-26T03:45:43;3.00;;;2.38;;
9005;SDS011;62284;50.702;7.140;2022-10-26T03:48:09;2.85;;;1.80;;
9005;SDS011;62284;50.702;7.140;2022-10-26T03:50:36;3.83;;;2.10;;
9005;SDS011;62284;50.702;7.140;2022-10-26T03:53:03;2.13;;;1.73;;
9005;SDS011;62284;50.702;7.140;2022-10-26T03:55:32;5.35;;;2.30;;
9005;SDS011;62284;50.702;7.140;2022-10-26T03:57:59;2.90;;;2.13;;
9005;SDS011;62284;50.702;7.140;2022-10-26T04:00:25;3.70;;;2.30;;
9005;SDS011;62284;50.702;7.140;2022-10-26T04:02:53;3.05;;;2.17;;
9005;SDS011;62284;50.702;7.140;2022-10-26T04:05:20;2.78;;;2.20;;
9005;SDS011;62284;50.702;7.140;2022-10-26T04:07:50;4.13;;;2.22;;
9005;SDS011;62284;50.702;7.140;2022-10-26T04:10:18;2.85;;;2.03;;
9005;SDS011;62284;50.702;7.140;2022-10-26T04:12:46;3.15;;;2.53;;
9005;SDS011;62284;50.702;7.140;2022-10-26T04:15:13;3.08;;;2.10;;
9005;SDS011;62284;50.702;7.140;2022-10-26T04:17:41;3.05;;;2.45;;
9005;SDS011;62284;50.702;7.140;2022-10-26T04:20:08;3.25;;;2.05;;
9005;SDS011;62284;50.702;7.140;2022-10-26T04:22:35;3.75;;;2.55;;
9005;SDS011;62284;50.702;7.140;2022-10-26T04:25:02;4.88;;;2.70;;
9005;SDS011;62284;50.702;7.140;2022-10-26T04:27:30;3.53;;;2.47;;
9005;SDS011;62284;50.702;7.140;2022-10-26T04:29:58;3.30;;;2.17;;
9005;SDS011;62284;50.702;7.140;2022-10-26T04:32:25;3.17;;;2.08;;
9005;SDS011;62284;50.702;7.140;2022-10-26T04:34:52;5.05;;;2.28;;
9005;SDS011;62284;50.702;7.140;2022-10-26T04:37:19;3.17;;;2.08;;
9005;SDS011;62284;50.702;7.140;2022-10-26T04:39:46;4.40;;;2.40;;
9005;SDS011;62284;50.702;7.140;2022-10-26T04:42:13;2.60;;;2.17;;
9005;SDS011;62284;50.702;7.140;2022-10-26T04:44:39;3.78;;;2.28;;
9005;SDS011;62284;50.702;7.140;2022-10-26T04:47:08;2.55;;;2.35;;
9005;SDS011;62284;50.702;7.140;2022-10-26T04:49:34;3.60;;;2.28;;
9005;SDS011;62284;50.702;7.140;2022-10-26T04:52:01;3.42;;;2.38;;
9005;SDS011;62284;50.702;7.140;2022-10-26T04:54:30;2.22;;;2.03;;
9005;SDS011;62284;50.702;7.140;2022-10-26T04:56:57;4.65;;;2.53;;
9005;SDS011;62284;50.702;7.140;2022-10-26T04:59:24;3.00;;;2.25;;
9005;SDS011;62284;50.702;7.140;2022-10-26T05:01:51;3.80;;;2.50;;
9005;SDS011;62284;50.702;7.140;2022-10-26T05:04:19;4.78;;;2.65;;
9005;SDS011;62284;50.702;7.140;2022-10-26T05:06:46;4.20;;;2.60;;
9005;SDS011;62284;50.702;7.140;2022-10-26T05:09:13;3.42;;;2.58;;
9005;SDS011;62284;50.702;7.140;2022-10-26T05:11:40;3.53;;;2.65;;
9005;SDS011;62284;50.702;7.140;2022-10-26T05:14:07;2.70;;;2.50;;
9005;SDS011;62284;50.702;7.140;2022-10-26T05:16:34;5.07;;;2.70;;
9005;SDS011;62284;50.702;7.140;2022-10-26T05:19:01;4.30;;;2.78;;
9005;SDS011;62284;50.702;7.140;2022-10-26T05:21:29;3.38;;;2.60;;
9005;SDS011;62284;50.702;7.140;2022-10-26T05:23:56;3.05;;;2.75;;
9005;SDS011;62284;50.702;7.140;2022-10-26T05:26:23;2.90;;;2.60;;
9005;SDS011;62284;50.702;7.140;2022-10-26T05:28:50;3.80;;;2.75;;
9005;SDS011;62284;50.702;7.140;2022-10-26T05:31:17;4.00;;;2.83;;
9005;SDS011;62284;50.702;7.140;2022-10-26T05:33:47;4.07;;;2.75;;
9005;SDS011;62284;50.702;7.140;2022-10-26T05:36:14;3.30;;;2.55;;
9005;SDS011;62284;50.702;7.140;2022-10-26T05:38:43;3.53;;;2.50;;
9005;SDS011;62284;50.702;7.140;2022-10-26T05:41:09;3.67;;;2.65;;
9005;SDS011;62284;50.702;7.140;2022-10-26T05:43:36;2.60;;;2.40;;
9005;SDS011;62284;50.702;7.140;2022-10-26T05:46:03;3.90;;;2.47;;
9005;SDS011;62284;50.702;7.140;2022-10-26T05:48:31;3.22;;;2.22;;
9005;SDS011;62284;50.702;7.140;2022-10-26T05:50:57;4.47;;;2.70;;
9005;SDS011;62284;50.702;7.140;2022-10-26T05:53:25;4.65;;;3.00;;
9005;SDS011;62284;50.702;7.140;2022-10-26T05:55:55;2.75;;;2.38;;
9005;SDS011;62284;50.702;7.140;2022-10-26T05:58:22;6.80;;;2.63;;
9005;SDS011;62284;50.702;7.140;2022-10-26T06:00:53;3.17;;;2.40;;
9005;SDS011;62284;50.702;7.140;2022-10-26T06:03:34;3.65;;;2.65;;
9005;SDS011;62284;50.702;7.140;2022-10-26T06:06:10;3.47;;;2.70;;
9005;SDS011;62284;50.702;7.140;2022-10-26T06:08:38;3.72;;;2.47;;
9005;SDS011;62284;50.702;7.140;2022-10-26T06:11:09;3.42;;;2.50;;
9005;SDS011;62284;50.702;7.140;2022-10-26T06:13:36;3.63;;;2.65;;
9005;SDS011;62284;50.702;7.140;2022-10-26T06:16:10;4.82;;;2.80;;
9005;SDS011;62284;50.702;7.140;2022-10-26T06:18:50;3.55;;;2.50;;
9005;SDS011;62284;50.702;7.140;2022-10-26T06:21:29;4.88;;;2.83;;
9005;SDS011;62284;50.702;7.140;2022-10-26T06:24:06;3.13;;;2.83;;
9005;SDS011;62284;50.702;7.140;2022-10-26T06:26:41;3.60;;;3.15;;
9005;SDS011;62284;50.702;7.140;2022-10-26T06:29:19;3.38;;;2.53;;
9005;SDS011;62284;50.702;7.140;2022-10-26T06:31:53;3.28;;;2.97;;
9005;SDS011;62284;50.702;7.140;2022-10-26T06:34:22;4.38;;;2.92;;
9005;SDS011;62284;50.702;7.140;2022-10-26T06:36:53;5.10;;;2.65;;
9005;SDS011;62284;50.702;7.140;2022-10-26T06:39:22;4.97;;;2.72;;
9005;SDS011;62284;50.702;7.140;2022-10-26T06:41:53;3.78;;;2.55;;
9005;SDS011;62284;50.702;7.140;2022-10-26T06:44:22;2.40;;;2.20;;
9005;SDS011;62284;50.702;7.140;2022-10-26T06:46:51;3.35;;;2.60;;
9005;SDS011;62284;50.702;7.140;2022-10-26T06:49:26;6.43;;;3.03;;
9005;SDS011;62284;50.702;7.140;2022-10-26T06:51:57;3.72;;;2.65;;
9005;SDS011;62284;50.702;7.140;2022-10-26T06:54:28;2.45;;;2.25;;
9005;SDS011;62284;50.702;7.140;2022-10-26T06:57:08;3.22;;;2.83;;
9005;SDS011;62284;50.702;7.140;2022-10-26T06:59:37;3.08;;;2.78;;
9005;SDS011;62284;50.702;7.140;2022-10-26T07:02:08;4.30;;;2.80;;
9005;SDS011;62284;50.702;7.140;2022-10-26T07:04:36;2.90;;;2.60;;
9005;SDS011;62284;50.702;7.140;2022-10-26T07:07:03;3.33;;;2.40;;
9005;SDS011;62284;50.702;7.140;2022-10-26T07:09:30;5.18;;;2.53;;
9005;SDS011;62284;50.702;7.140;2022-10-26T07:11:57;5.00;;;2.58;;
9005;SDS011;62284;50.702;7.140;2022-10-26T07:14:25;4.55;;;2.42;;
9005;SDS011;62284;50.702;7.140;2022-10-26T07:16:52;5.15;;;2.85;;
9005;SDS011;62284;50.702;7.140;2022-10-26T07:19:21;4.40;;;2.80;;
9005;SDS011;62284;50.702;7.140;2022-10-26T07:21:48;4.15;;;2.72;;
9005;SDS011;62284;50.702;7.140;2022-10-26T07:24:15;4.53;;;3.22;;
9005;SDS011;62284;50.702;7.140;2022-10-26T07:26:42;3.35;;;2.90;;
9005;SDS011;62284;50.702;7.140;2022-10-26T07:29:08;3.63;;;2.53;;
9005;SDS011;62284;50.702;7.140;2022-10-26T07:31:37;4.22;;;3.00;;
9005;SDS011;62284;50.702;7.140;2022-10-26T07:34:04;3.75;;;2.97;;
9005;SDS011;62284;50.702;7.140;2022-10-26T07:36:31;4.07;;;2.63;;
9005;SDS011;62284;50.702;7.140;2022-10-26T07:38:57;3.15;;;2.85;;
9005;SDS011;62284;50.702;7.140;2022-10-26T07:41:24;2.92;;;2.45;;
9005;SDS011;62284;50.702;7.140;2022-10-26T07:43:51;5.82;;;3.08;;
9005;SDS011;62284;50.702;7.140;2022-10-26T07:46:18;3.28;;;2.97;;
9005;SDS011;62284;50.702;7.140;2022-10-26T07:48:46;4.00;;;2.67;;
9005;SDS011;62284;50.702;7.140;2022-10-26T07:51:13;3.30;;;2.47;;
9005;SDS011;62284;50.702;7.140;2022-10-26T07:53:40;3.83;;;2.83;;
9005;SDS011;62284;50.702;7.140;2022-10-26T07:56:07;3.83;;;2.58;;
9005;SDS011;62284;50.702;7.140;2022-10-26T07:58:34;5.40;;;2.90;;
9005;SDS011;62284;50.702;7.140;2022-10-26T08:01:04;5.00;;;3.17;;
9005;SDS011;62284;50.702;7.140;2022-10-26T08:03:32;3.05;;;2.50;;
9005;SDS011;62284;50.702;7.140;2022-10-26T08:06:00;3.80;;;3.00;;
9005;SDS011;62284;50.702;7.140;2022-10-26T08:08:28;4.40;;;2.88;;
9005;SDS011;62284;50.702;7.140;2022-10-26T08:10:55;4.28;;;2.55;;
9005;SDS011;62284;50.702;7.140;2022-10-26T08:13:23;4.22;;;3.10;;
9005;SDS011;62284;50.702;7.140;2022-10-26T08:15:54;4.22;;;2.97;;
9005;SDS011;62284;50.702;7.140;2022-10-26T08:18:22;6.55;;;3.30;;
9005;SDS011;62284;50.702;7.140;2022-10-26T08:20:48;5.70;;;3.38;;
9005;SDS011;62284;50.702;7.140;2022-10-26T08:23:17;4.05;;;3.28;;
9005;SDS011;62284;50.702;7.140;2022-10-26T08:25:44;4.90;;;3.08;;
9005;SDS011;62284;50.702;7.140;2022-10-26T08:28:11;5.72;;;4.05;;
9005;SDS011;62284;50.702;7.140;2022-10-26T08:30:38;4.50;;;3.03;;
9005;SDS011;62284;50.702;7.140;2022-10-26T08:33:05;5.60;;;3.22;;
9005;SDS011;62284;50.702;7.140;2022-10-26T08:35:33;3.97;;;2.88;;
9005;SDS011;62284;50.702;7.140;2022-10-26T08:38:00;3.80;;;2.60;;
9005;SDS011;62284;50.702;7.140;2022-10-26T08:40:29;4.05;;;3.40;;
9005;SDS011;62284;50.702;7.140;2022-10-26T08:42:59;5.78;;;3.05;;
9005;SDS011;62284;50.702;7.140;2022-10-26T08:45:30;4.05;;;2.95;;
9005;SDS011;62284;50.702;7.140;2022-10-26T08:48:03;4.68;;;2.97;;
9005;SDS011;62284;50.702;7.140;2022-10-26T08:50:36;3.58;;;2.70;;
9005;SDS011;62284;50.702;7.140;2022-10-26T08:53:07;3.22;;;2.45;;
9005;SDS011;62284;50.702;7.140;2022-10-26T08:55:42;5.88;;;3.10;;
9005;SDS011;62284;50.702;7.140;2022-10-26T08:58:13;3.55;;;2.72;;
9005;SDS011;62284;50.702;7.140;2022-10-26T09:00:43;3.55;;;2.70;;
9005;SDS011;62284;50.702;7.140;2022-10-26T09:03:12;3.50;;;3.20;;
9005;SDS011;62284;50.702;7.140;2022-10-26T09:05:46;4.53;;;2.60;;
9005;SDS011;62284;50.702;7.140;2022-10-26T09:08:20;8.15;;;3.25;;
9005;SDS011;62284;50.702;7.140;2022-10-26T09:10:59;4.40;;;2.55;;
9005;SDS011;62284;50.702;7.140;2022-10-26T09:13:33;4.25;;;2.95;;
9005;SDS011;62284;50.702;7.140;2022-10-26T09:16:05;3.80;;;2.80;;
9005;SDS011;62284;50.702;7.140;2022-10-26T09:18:43;2.97;;;2.55;;
9005;SDS011;62284;50.702;7.140;2022-10-26T09:21:18;4.72;;;2.40;;
9005;SDS011;62284;50.702;7.140;2022-10-26T09:23:57;4.70;;;3.17;;
9005;SDS011;62284;50.702;7.140;2022-10-26T09:26:41;4.53;;;2.97;;
9005;SDS011;62284;50.702;7.140;2022-10-26T09:29:16;5.72;;;2.95;;
9005;SDS011;62284;50.702;7.140;2022-10-26T09:31:46;3.33;;;2.45;;
9005;SDS011;62284;50.702;7.140;2022-10-26T09:34:26;3.55;;;3.03;;
9005;SDS011;62284;50.702;7.140;2022-10-26T09:36:56;3.58;;;2.53;;
9005;SDS011;62284;50.702;7.140;2022-10-26T09:39:25;3.03;;;2.33;;
9005;SDS011;62284;50.702;7.140;2022-10-26T09:42:01;3.75;;;2.80;;
9005;SDS011;62284;50.702;7.140;2022-10-26T09:44:36;4.15;;;2.40;;
9005;SDS011;62284;50.702;7.140;2022-10-26T09:47:11;3.50;;;2.22;;
9005;SDS011;62284;50.702;7.140;2022-10-26T09:49:48;3.45;;;2.50;;
9005;SDS011;62284;50.702;7.140;2022-10-26T09:52:20;4.43;;;2.90;;
9005;SDS011;62284;50.702;7.140;2022-10-26T09:54:47;3.08;;;2.35;;
9005;SDS011;62284;50.702;7.140;2022-10-26T09:57:16;3.50;;;2.25;;
9005;SDS011;62284;50.702;7.140;2022-10-26T09:59:45;6.07;;;2.88;;
9005;SDS011;62284;50.702;7.140;2022-10-26T10:02:33;2.97;;;2.50;;
9005;SDS011;62284;50.702;7.140;2022-10-26T10:05:00;2.97;;;2.30;;
9005;SDS011;62284;50.702;7.140;2022-10-26T10:07:27;2.25;;;2.00;;
9005;SDS011;62284;50.702;7.140;2022-10-26T10:10:07;3.28;;;2.25;;
9005;SDS011;62284;50.702;7.140;2022-10-26T10:12:41;3.80;;;2.22;;
9005;SDS011;62284;50.702;7.140;2022-10-26T10:15:15;9.00;;;2.10;;
9005;SDS011;62284;50.702;7.140;2022-10-26T10:17:45;3.55;;;1.90;;
9005;SDS011;62284;50.702;7.140;2022-10-26T10:20:17;4.03;;;2.63;;
9005;SDS011;62284;50.702;7.140;2022-10-26T10:22:53;3.72;;;2.45;;
9005;SDS011;62284;50.702;7.140;2022-10-26T10:25:22;4.28;;;2.33;;
9005;SDS011;62284;50.702;7.140;2022-10-26T10:27:59;6.22;;;2.40;;
9005;SDS011;62284;50.702;7.140;2022-10-26T10:30:27;4.88;;;2.53;;
9005;SDS011;62284;50.702;7.140;2022-10-26T10:33:02;5.72;;;2.90;;
9005;SDS011;62284;50.702;7.140;2022-10-26T10:35:31;4.38;;;2.30;;
9005;SDS011;62284;50.702;7.140;2022-10-26T10:37:58;3.38;;;2.40;;
9005;SDS011;62284;50.702;7.140;2022-10-26T10:40:25;5.53;;;2.47;;
9005;SDS011;62284;50.702;7.140;2022-10-26T10:43:02;4.75;;;2.30;;
9005;SDS011;62284;50.702;7.140;2022-10-26T10:45:31;2.97;;;2.15;;
9005;SDS011;62284;50.702;7.140;2022-10-26T10:48:00;1.95;;;1.70;;
9005;SDS011;62284;50.702;7.140;2022-10-26T10:50:30;4.05;;;2.45;;
9005;SDS011;62284;50.702;7.140;2022-10-26T10:55:48;2.72;;;1.80;;
9005;SDS011;62284;50.702;7.140;2022-10-26T10:58:28;2.20;;;1.60;;
9005;SDS011;62284;50.702;7.140;2022-10-26T11:01:02;1.63;;;1.50;;
9005;SDS011;62284;50.702;7.140;2022-10-26T11:03:31;4.32;;;1.70;;
9005;SDS011;62284;50.702;7.140;2022-10-26T11:06:05;1.90;;;1.50;;
9005;SDS011;62284;50.702;7.140;2022-10-26T11:08:40;2.30;;;1.40;;
9005;SDS011;62284;50.702;7.140;2022-10-26T11:11:12;1.58;;;1.40;;
9005;SDS011;62284;50.702;7.140;2022-10-26T11:13:45;2.45;;;1.40;;
9005;SDS011;62284;50.702;7.140;2022-10-26T11:16:18;2.15;;;1.77;;
9005;SDS011;62284;50.702;7.140;2022-10-26T11:18:49;2.38;;;1.45;;
9005;SDS011;62284;50.702;7.140;2022-10-26T11:21:21;4.32;;;1.73;;
9005;SDS011;62284;50.702;7.140;2022-10-26T11:23:53;1.58;;;1.20;;
9005;SDS011;62284;50.702;7.140;2022-10-26T11:26:32;3.20;;;1.55;;
9005;SDS011;62284;50.702;7.140;2022-10-26T11:29:04;2.13;;;1.50;;
9005;SDS011;62284;50.702;7.140;2022-10-26T11:31:37;2.33;;;1.80;;
9005;SDS011;62284;50.702;7.140;2022-10-26T11:34:15;1.40;;;1.30;;
9005;SDS011;62284;50.702;7.140;2022-10-26T11:36:50;4.15;;;1.83;;
9005;SDS011;62284;50.702;7.140;2022-10-26T11:39:21;3.15;;;1.65;;
9005;SDS011;62284;50.702;7.140;2022-10-26T11:41:59;2.05;;;1.48;;
9005;SDS011;62284;50.702;7.140;2022-10-26T11:44:33;2.67;;;1.20;;
9005;SDS011;62284;50.702;7.140;2022-10-26T11:47:05;1.60;;;1.40;;
9005;SDS011;62284;50.702;7.140;2022-10-26T11:49:40;3.17;;;1.40;;
9005;SDS011;62284;50.702;7.140;2022-10-26T11:52:12;3.22;;;1.85;;
9005;SDS011;62284;50.702;7.140;2022-10-26T11:54:43;3.33;;;1.42;;
9005;SDS011;62284;50.702;7.140;2022-10-26T11:57:13;2.72;;;1.45;;
9005;SDS011;62284;50.702;7.140;2022-10-26T11:59:44;2.60;;;1.23;;
9005;SDS011;62284;50.702;7.140;2022-10-26T12:02:17;2.25;;;1.10;;
9005;SDS011;62284;50.702;7.140;2022-10-26T12:04:48;1.98;;;1.20;;
9005;SDS011;62284;50.702;7.140;2022-10-26T12:07:20;1.83;;;1.20;;
9005;SDS011;62284;50.702;7.140;2022-10-26T12:09:50;1.50;;;1.20;;
9005;SDS011;62284;50.702;7.140;2022-10-26T12:12:20;2.22;;;1.10;;
9005;SDS011;62284;50.702;7.140;2022-10-26T12:14:53;1.20;;;1.08;;
9005;SDS011;62284;50.702;7.140;2022-10-26T12:17:25;1.67;;;1.25;;
9005;SDS011;62284;50.702;7.140;2022-10-26T12:20:00;1.10;;;1.00;;
9005;SDS011;62284;50.702;7.140;2022-10-26T12:22:36;1.60;;;1.17;;
9005;SDS011;62284;50.702;7.140;2022-10-26T12:25:06;1.33;;;1.20;;
9005;SDS011;62284;50.702;7.140;2022-10-26T12:27:51;1.02;;;0.63;;
9005;SDS011;62284;50.702;7.140;2022-10-26T12:33:25;1.38;;;1.00;;
9005;SDS011;62284;50.702;7.140;2022-10-26T12:35:53;2.22;;;0.98;;
9005;SDS011;62284;50.702;7.140;2022-10-26T12:38:50;1.40;;;1.10;;
9005;SDS011;62284;50.702;7.140;2022-10-26T12:41:25;1.20;;;0.85;;
9005;SDS011;62284;50.702;7.140;2022-10-26T12:43:54;3.30;;;1.27;;
9005;SDS011;62284;50.702;7.140;2022-10-26T12:55:22;1.50;;;1.27;;
9005;SDS011;62284;50.702;7.140;2022-10-26T13:08:03;2.83;;;1.13;;
9005;SDS011;62284;50.702;7.140;2022-10-26T13:10:32;1.50;;;0.90;;
9005;SDS011;62284;50.702;7.140;2022-10-26T13:13:01;1.60;;;0.68;;
9005;SDS011;62284;50.702;7.140;2022-10-26T13:15:32;1.20;;;1.10;;
9005;SDS011;62284;50.702;7.140;2022-10-26T13:18:06;2.55;;;1.25;;
9005;SDS011;62284;50.702;7.140;2022-10-26T13:20:49;1.63;;;0.88;;
9005;SDS011;62284;50.702;7.140;2022-10-26T13:23:19;1.52;;;0.80;;
9005;SDS011;62284;50.702;7.140;2022-10-26T13:26:01;1.20;;;1.10;;
9005;SDS011;62284;50.702;7.140;2022-10-26T13:28:31;6.72;;;1.10;;
9005;SDS011;62284;50.702;7.140;2022-10-26T13:31:09;1.23;;;0.55;;
9005;SDS011;62284;50.702;7.140;2022-10-26T13:33:39;2.00;;;0.82;;
9005;SDS011;62284;50.702;7.140;2022-10-26T13:36:13;1.13;;;0.73;;
9005;SDS011;62284;50.702;7.140;2022-10-26T13:38:44;1.52;;;1.10;;
9005;SDS011;62284;50.702;7.140;2022-10-26T13:41:20;1.38;;;1.08;;
9005;SDS011;62284;50.702;7.140;2022-10-26T13:43:52;1.70;;;1.10;;
9005;SDS011;62284;50.702;7.140;2022-10-26T13:46:24;1.23;;;0.90;;
9005;SDS011;62284;50.702;7.140;2022-10-26T13:48:53;2.00;;;0.90;;
9005;SDS011;62284;50.702;7.140;2022-10-26T13:51:31;1.75;;;1.08;;
9005;SDS011;62284;50.702;7.140;2022-10-26T13:54:06;0.90;;;0.80;;
9005;SDS011;62284;50.702;7.140;2022-10-26T13:56:48;0.73;;;0.70;;
9005;SDS011;62284;50.702;7.140;2022-10-26T13:59:36;1.42;;;0.80;;
9005;SDS011;62284;50.702;7.140;2022-10-26T14:02:06;1.40;;;0.98;;
9005;SDS011;62284;50.702;7.140;2022-10-26T14:04:43;2.70;;;1.08;;
9005;SDS011;62284;50.702;7.140;2022-10-26T14:07:13;1.63;;;1.20;;
9005;SDS011;62284;50.702;7.140;2022-10-26T14:09:48;2.28;;;1.10;;
9005;SDS011;62284;50.702;7.140;2022-10-26T14:12:16;1.63;;;0.77;;
9005;SDS011;62284;50.702;7.140;2022-10-26T14:14:43;1.50;;;1.08;;
9005;SDS011;62284;50.702;7.140;2022-10-26T14:17:13;0.80;;;0.80;;
9005;SDS011;62284;50.702;7.140;2022-10-26T14:19:46;1.92;;;0.95;;
9005;SDS011;62284;50.702;7.140;2022-10-26T14:22:20;1.45;;;1.00;;
9005;SDS011;62284;50.702;7.140;2022-10-26T14:24:51;0.77;;;0.77;;
9005;SDS011;62284;50.702;7.140;2022-10-26T14:27:21;0.95;;;0.77;;
9005;SDS011;62284;50.702;7.140;2022-10-26T14:29:50;2.42;;;1.00;;
9005;SDS011;62284;50.702;7.140;2022-10-26T14:32:19;0.77;;;0.73;;
9005;SDS011;62284;50.702;7.140;2022-10-26T14:34:46;1.60;;;0.85;;
9005;SDS011;62284;50.702;7.140;2022-10-26T14:37:16;2.10;;;0.77;;
9005;SDS011;62284;50.702;7.140;2022-10-26T14:39:53;2.00;;;1.10;;
9005;SDS011;62284;50.702;7.140;2022-10-26T14:42:22;1.08;;;0.80;;
9005;SDS011;62284;50.702;7.140;2022-10-26T14:44:53;2.55;;;0.80;;
9005;SDS011;62284;50.702;7.140;2022-10-26T14:47:22;1.17;;;0.98;;
9005;SDS011;62284;50.702;7.140;2022-10-26T14:49:50;3.33;;;0.95;;
9005;SDS011;62284;50.702;7.140;2022-10-26T14:52:19;2.17;;;1.08;;
9005;SDS011;62284;50.702;7.140;2022-10-26T14:54:56;1.92;;;0.70;;
9005;SDS011;62284;50.702;7.140;2022-10-26T14:57:29;1.52;;;0.98;;
9005;SDS011;62284;50.702;7.140;2022-10-26T14:59:59;1.90;;;1.25;;
9005;SDS011;62284;50.702;7.140;2022-10-26T15:02:27;1.70;;;1.20;;
9005;SDS011;62284;50.702;7.140;2022-10-26T15:04:58;1.27;;;1.00;;
9005;SDS011;62284;50.702;7.140;2022-10-26T15:07:33;1.38;;;1.17;;
9005;SDS011;62284;50.702;7.140;2022-10-26T15:10:03;2.88;;;1.58;;
9005;SDS011;62284;50.702;7.140;2022-10-26T15:12:31;1.65;;;1.50;;
9005;SDS011;62284;50.702;7.140;2022-10-26T15:15:01;1.60;;;1.50;;
9005;SDS011;62284;50.702;7.140;2022-10-26T15:17:40;1.52;;;1.40;;
9005;SDS011;62284;50.702;7.140;2022-10-26T15:20:12;2.05;;;1.88;;
9005;SDS011;62284;50.702;7.140;2022-10-26T15:22:42;1.88;;;1.45;;
9005;SDS011;62284;50.702;7.140;2022-10-26T15:25:16;2.47;;;1.58;;
9005;SDS011;62284;50.702;7.140;2022-10-26T15:27:47;1.88;;;1.48;;
9005;SDS011;62284;50.702;7.140;2022-10-26T15:30:19;1.80;;;1.70;;
9005;SDS011;62284;50.702;7.140;2022-10-26T15:32:48;1.92;;;1.67;;
9005;SDS011;62284;50.702;7.140;2022-10-26T15:35:23;2.05;;;1.40;;
9005;SDS011;62284;50.702;7.140;2022-10-26T15:37:53;2.42;;;1.55;;
9005;SDS011;62284;50.702;7.140;2022-10-26T15:40:22;1.90;;;1.50;;
9005;SDS011;62284;50.702;7.140;2022-10-26T15:42:51;2.47;;;1.20;;
9005;SDS011;62284;50.702;7.140;2022-10-26T15:45:20;2.28;;;1.40;;
9005;SDS011;62284;50.702;7.140;2022-10-26T15:47:48;2.97;;;1.50;;